sensor_id;sensor_type;location;lat;lon;timestamp;P1;durP1;ratioP1;P2;durP2;ratioP2
12312;SDS011;6220;53.580;9.758;2023-04-06T00:00:12;5.53;;;3.20;;
12312;SDS011;6220;53.580;9.758;2023-04-06T00:02:39;4.60;;;2.93;;
12312;SDS011;6220;53.580;9.758;2023-04-06T00:05:05;6.23;;;2.93;;
12312;SDS011;6220;53.580;9.758;2023-04-06T00:07:31;4.53;;;3.10;;
12312;SDS011;6220;53.580;9.758;2023-04-06T00:09:58;4.73;;;3.33;;
12312;SDS011;6220;53.580;9.758;2023-04-06T00:12:23;4.00;;;3.60;;
12312;SDS011;6220;53.580;9.758;2023-04-06T00:14:49;3.50;;;3.20;;
12312;SDS011;6220;53.580;9.758;2023-04-06T00:17:15;6.00;;;3.57;;
12312;SDS011;6220;53.580;9.758;2023-04-06T00:19:40;5.77;;;3.60;;
12312;SDS011;6220;53.580;9.758;2023-04-06T00:22:06;4.27;;;3.47;;
12312;SDS011;6220;53.580;9.758;2023-04-06T00:24:31;5.43;;;3.40;;
12312;SDS011;6220;53.580;9.758;2023-04-06T00:26:57;4.17;;;3.40;;
12312;SDS011;6220;53.580;9.758;2023-04-06T00:29:22;4.80;;;3.40;;
12312;SDS011;6220;53.580;9.758;2023-04-06T00:31:47;3.90;;;3.50;;
12312;SDS011;6220;53.580;9.758;2023-04-06T00:34:13;6.23;;;3.70;;
12312;SDS011;6220;53.580;9.758;2023-04-06T00:36:40;4.67;;;3.50;;
12312;SDS011;6220;53.580;9.758;2023-04-06T00:39:06;6.27;;;3.53;;
12312;SDS011;6220;53.580;9.758;2023-04-06T00:41:31;5.60;;;3.40;;
12312;SDS011;6220;53.580;9.758;2023-04-06T00:43:57;4.77;;;4.27;;
12312;SDS011;6220;53.580;9.758;2023-04-06T00:46:22;6.50;;;3.53;;
12312;SDS011;6220;53.580;9.758;2023-04-06T00:48:47;8.47;;;3.67;;
12312;SDS011;6220;53.580;9.758;2023-04-06T00:51:14;4.70;;;3.73;;
12312;SDS011;6220;53.580;9.758;2023-04-06T00:53:39;6.03;;;4.03;;
12312;SDS011;6220;53.580;9.758;2023-04-06T00:56:05;7.30;;;4.27;;
12312;SDS011;6220;53.580;9.758;2023-04-06T00:58:30;7.73;;;4.33;;
12312;SDS011;6220;53.580;9.758;2023-04-06T01:00:57;5.70;;;4.10;;
12312;SDS011;6220;53.580;9.758;2023-04-06T01:03:22;7.20;;;4.60;;
12312;SDS011;6220;53.580;9.758;2023-04-06T01:05:48;4.97;;;4.37;;
12312;SDS011;6220;53.580;9.758;2023-04-06T01:08:13;6.60;;;4.50;;
12312;SDS011;6220;53.580;9.758;2023-04-06T01:10:39;5.00;;;4.00;;
12312;SDS011;6220;53.580;9.758;2023-04-06T01:13:05;8.43;;;4.40;;
12312;SDS011;6220;53.580;9.758;2023-04-06T01:15:30;6.77;;;4.70;;
12312;SDS011;6220;53.580;9.758;2023-04-06T01:17:57;7.00;;;4.33;;
12312;SDS011;6220;53.580;9.758;2023-04-06T01:20:22;6.27;;;4.23;;
12312;SDS011;6220;53.580;9.758;2023-04-06T01:22:48;5.80;;;4.20;;
12312;SDS011;6220;53.580;9.758;2023-04-06T01:25:13;5.70;;;4.50;;
12312;SDS011;6220;53.580;9.758;2023-04-06T01:27:38;6.33;;;4.33;;
12312;SDS011;6220;53.580;9.758;2023-04-06T01:30:04;6.80;;;3.70;;
12312;SDS011;6220;53.580;9.758;2023-04-06T01:32:31;6.30;;;4.10;;
12312;SDS011;6220;53.580;9.758;2023-04-06T01:34:56;6.77;;;4.23;;
12312;SDS011;6220;53.580;9.758;2023-04-06T01:37:21;6.50;;;4.37;;
12312;SDS011;6220;53.580;9.758;2023-04-06T01:39:47;7.17;;;4.17;;
12312;SDS011;6220;53.580;9.758;2023-04-06T01:42:12;8.97;;;4.17;;
12312;SDS011;6220;53.580;9.758;2023-04-06T01:44:37;6.07;;;3.97;;
12312;SDS011;6220;53.580;9.758;2023-04-06T01:47:03;7.23;;;3.80;;
12312;SDS011;6220;53.580;9.758;2023-04-06T01:49:28;7.67;;;4.03;;
12312;SDS011;6220;53.580;9.758;2023-04-06T01:51:54;4.73;;;3.80;;
12312;SDS011;6220;53.580;9.758;2023-04-06T01:54:19;7.43;;;4.43;;
12312;SDS011;6220;53.580;9.758;2023-04-06T01:56:45;7.97;;;4.20;;
12312;SDS011;6220;53.580;9.758;2023-04-06T01:59:10;6.47;;;4.30;;
12312;SDS011;6220;53.580;9.758;2023-04-06T02:01:36;6.50;;;4.20;;
12312;SDS011;6220;53.580;9.758;2023-04-06T02:04:01;5.63;;;4.40;;
12312;SDS011;6220;53.580;9.758;2023-04-06T02:06:26;7.47;;;4.43;;
12312;SDS011;6220;53.580;9.758;2023-04-06T02:08:52;5.27;;;4.47;;
12312;SDS011;6220;53.580;9.758;2023-04-06T02:11:17;5.70;;;4.57;;
12312;SDS011;6220;53.580;9.758;2023-04-06T02:13:43;9.80;;;4.40;;
12312;SDS011;6220;53.580;9.758;2023-04-06T02:16:08;8.13;;;4.73;;
12312;SDS011;6220;53.580;9.758;2023-04-06T02:18:34;6.73;;;4.17;;
12312;SDS011;6220;53.580;9.758;2023-04-06T02:21:00;8.20;;;4.60;;
12312;SDS011;6220;53.580;9.758;2023-04-06T02:23:25;7.47;;;4.90;;
12312;SDS011;6220;53.580;9.758;2023-04-06T02:25:51;7.07;;;4.60;;
12312;SDS011;6220;53.580;9.758;2023-04-06T02:28:17;8.50;;;4.70;;
12312;SDS011;6220;53.580;9.758;2023-04-06T02:30:42;7.47;;;4.47;;
12312;SDS011;6220;53.580;9.758;2023-04-06T02:33:07;9.77;;;5.37;;
12312;SDS011;6220;53.580;9.758;2023-04-06T02:35:33;5.20;;;4.43;;
12312;SDS011;6220;53.580;9.758;2023-04-06T02:37:58;7.90;;;4.60;;
12312;SDS011;6220;53.580;9.758;2023-04-06T02:40:24;7.80;;;5.00;;
12312;SDS011;6220;53.580;9.758;2023-04-06T02:42:49;7.43;;;4.77;;
12312;SDS011;6220;53.580;9.758;2023-04-06T02:45:15;6.73;;;4.90;;
12312;SDS011;6220;53.580;9.758;2023-04-06T02:47:41;7.43;;;4.97;;
12312;SDS011;6220;53.580;9.758;2023-04-06T02:50:06;10.37;;;4.57;;
12312;SDS011;6220;53.580;9.758;2023-04-06T02:52:32;8.10;;;5.00;;
12312;SDS011;6220;53.580;9.758;2023-04-06T02:54:57;6.23;;;4.30;;
12312;SDS011;6220;53.580;9.758;2023-04-06T02:57:23;6.70;;;4.43;;
12312;SDS011;6220;53.580;9.758;2023-04-06T02:59:48;5.77;;;4.73;;
12312;SDS011;6220;53.580;9.758;2023-04-06T03:02:14;6.33;;;4.67;;
12312;SDS011;6220;53.580;9.758;2023-04-06T03:04:39;8.00;;;5.23;;
12312;SDS011;6220;53.580;9.758;2023-04-06T03:07:05;9.43;;;5.40;;
12312;SDS011;6220;53.580;9.758;2023-04-06T03:09:30;9.63;;;5.73;;
12312;SDS011;6220;53.580;9.758;2023-04-06T03:11:55;11.17;;;5.53;;
12312;SDS011;6220;53.580;9.758;2023-04-06T03:14:21;8.13;;;5.50;;
12312;SDS011;6220;53.580;9.758;2023-04-06T03:16:47;9.27;;;5.20;;
12312;SDS011;6220;53.580;9.758;2023-04-06T03:19:13;7.17;;;5.27;;
12312;SDS011;6220;53.580;9.758;2023-04-06T03:21:39;7.87;;;4.73;;
12312;SDS011;6220;53.580;9.758;2023-04-06T03:24:05;8.23;;;5.30;;
12312;SDS011;6220;53.580;9.758;2023-04-06T03:26:31;9.80;;;5.60;;
12312;SDS011;6220;53.580;9.758;2023-04-06T03:28:56;5.63;;;4.90;;
12312;SDS011;6220;53.580;9.758;2023-04-06T03:31:21;7.37;;;5.13;;
12312;SDS011;6220;53.580;9.758;2023-04-06T03:33:47;6.63;;;5.03;;
12312;SDS011;6220;53.580;9.758;2023-04-06T03:36:12;8.50;;;5.40;;
12312;SDS011;6220;53.580;9.758;2023-04-06T03:38:37;7.23;;;5.67;;
12312;SDS011;6220;53.580;9.758;2023-04-06T03:41:03;7.47;;;5.37;;
12312;SDS011;6220;53.580;9.758;2023-04-06T03:43:28;6.80;;;5.30;;
12312;SDS011;6220;53.580;9.758;2023-04-06T03:45:54;7.67;;;6.10;;
12312;SDS011;6220;53.580;9.758;2023-04-06T03:48:19;7.80;;;5.60;;
12312;SDS011;6220;53.580;9.758;2023-04-06T03:50:44;7.97;;;5.73;;
12312;SDS011;6220;53.580;9.758;2023-04-06T03:53:10;8.40;;;5.73;;
12312;SDS011;6220;53.580;9.758;2023-04-06T03:55:36;10.87;;;6.07;;
12312;SDS011;6220;53.580;9.758;2023-04-06T03:58:02;9.57;;;5.53;;
12312;SDS011;6220;53.580;9.758;2023-04-06T04:00:28;9.07;;;6.20;;
12312;SDS011;6220;53.580;9.758;2023-04-06T04:02:53;8.10;;;5.70;;
12312;SDS011;6220;53.580;9.758;2023-04-06T04:05:18;6.63;;;5.80;;
12312;SDS011;6220;53.580;9.758;2023-04-06T04:07:44;10.83;;;6.07;;
12312;SDS011;6220;53.580;9.758;2023-04-06T04:10:09;9.70;;;6.87;;
12312;SDS011;6220;53.580;9.758;2023-04-06T04:12:35;7.97;;;5.70;;
12312;SDS011;6220;53.580;9.758;2023-04-06T04:15:00;9.83;;;6.17;;
12312;SDS011;6220;53.580;9.758;2023-04-06T04:17:25;10.50;;;6.30;;
12312;SDS011;6220;53.580;9.758;2023-04-06T04:19:51;11.53;;;5.97;;
12312;SDS011;6220;53.580;9.758;2023-04-06T04:22:16;9.90;;;6.30;;
12312;SDS011;6220;53.580;9.758;2023-04-06T04:24:42;8.43;;;6.07;;
12312;SDS011;6220;53.580;9.758;2023-04-06T04:27:07;11.27;;;5.83;;
12312;SDS011;6220;53.580;9.758;2023-04-06T04:29:33;9.03;;;6.53;;
12312;SDS011;6220;53.580;9.758;2023-04-06T04:31:58;9.33;;;5.93;;
12312;SDS011;6220;53.580;9.758;2023-04-06T04:34:24;10.17;;;6.27;;
12312;SDS011;6220;53.580;9.758;2023-04-06T04:36:50;7.90;;;5.90;;
12312;SDS011;6220;53.580;9.758;2023-04-06T04:39:16;10.97;;;7.00;;
12312;SDS011;6220;53.580;9.758;2023-04-06T04:41:41;9.57;;;6.73;;
12312;SDS011;6220;53.580;9.758;2023-04-06T04:44:06;9.30;;;6.40;;
12312;SDS011;6220;53.580;9.758;2023-04-06T04:46:32;9.70;;;6.33;;
12312;SDS011;6220;53.580;9.758;2023-04-06T04:48:57;12.20;;;7.23;;
12312;SDS011;6220;53.580;9.758;2023-04-06T04:51:23;14.53;;;7.43;;
12312;SDS011;6220;53.580;9.758;2023-04-06T04:53:49;13.10;;;7.67;;
12312;SDS011;6220;53.580;9.758;2023-04-06T04:56:15;7.90;;;6.47;;
12312;SDS011;6220;53.580;9.758;2023-04-06T04:58:40;12.97;;;6.43;;
12312;SDS011;6220;53.580;9.758;2023-04-06T05:01:05;9.57;;;7.40;;
12312;SDS011;6220;53.580;9.758;2023-04-06T05:03:31;8.63;;;7.03;;
12312;SDS011;6220;53.580;9.758;2023-04-06T05:05:57;9.97;;;6.73;;
12312;SDS011;6220;53.580;9.758;2023-04-06T05:08:22;10.97;;;7.37;;
12312;SDS011;6220;53.580;9.758;2023-04-06T05:10:48;12.90;;;7.80;;
12312;SDS011;6220;53.580;9.758;2023-04-06T05:13:13;11.43;;;7.03;;
12312;SDS011;6220;53.580;9.758;2023-04-06T05:15:39;10.67;;;6.37;;
12312;SDS011;6220;53.580;9.758;2023-04-06T05:18:06;8.10;;;6.70;;
12312;SDS011;6220;53.580;9.758;2023-04-06T05:20:32;11.83;;;7.57;;
12312;SDS011;6220;53.580;9.758;2023-04-06T05:22:57;13.40;;;7.67;;
12312;SDS011;6220;53.580;9.758;2023-04-06T05:25:23;17.33;;;8.00;;
12312;SDS011;6220;53.580;9.758;2023-04-06T05:27:49;15.33;;;7.87;;
12312;SDS011;6220;53.580;9.758;2023-04-06T05:30:14;16.67;;;7.90;;
12312;SDS011;6220;53.580;9.758;2023-04-06T05:32:40;11.73;;;7.27;;
12312;SDS011;6220;53.580;9.758;2023-04-06T05:35:05;10.37;;;7.80;;
12312;SDS011;6220;53.580;9.758;2023-04-06T05:37:30;10.47;;;7.70;;
12312;SDS011;6220;53.580;9.758;2023-04-06T05:39:56;13.03;;;7.77;;
12312;SDS011;6220;53.580;9.758;2023-04-06T05:42:22;11.70;;;7.60;;
12312;SDS011;6220;53.580;9.758;2023-04-06T05:44:47;11.90;;;7.47;;
12312;SDS011;6220;53.580;9.758;2023-04-06T05:47:13;10.60;;;7.13;;
12312;SDS011;6220;53.580;9.758;2023-04-06T05:49:38;10.23;;;7.10;;
12312;SDS011;6220;53.580;9.758;2023-04-06T05:52:03;11.63;;;7.60;;
12312;SDS011;6220;53.580;9.758;2023-04-06T05:54:29;11.73;;;7.97;;
12312;SDS011;6220;53.580;9.758;2023-04-06T05:56:55;14.80;;;7.10;;
12312;SDS011;6220;53.580;9.758;2023-04-06T05:59:20;12.80;;;8.80;;
12312;SDS011;6220;53.580;9.758;2023-04-06T06:01:45;13.47;;;8.63;;
12312;SDS011;6220;53.580;9.758;2023-04-06T06:04:11;13.83;;;9.40;;
12312;SDS011;6220;53.580;9.758;2023-04-06T06:06:36;11.87;;;8.40;;
12312;SDS011;6220;53.580;9.758;2023-04-06T06:09:02;12.93;;;7.93;;
12312;SDS011;6220;53.580;9.758;2023-04-06T06:11:29;15.00;;;9.10;;
12312;SDS011;6220;53.580;9.758;2023-04-06T06:13:55;13.30;;;9.20;;
12312;SDS011;6220;53.580;9.758;2023-04-06T06:16:21;13.60;;;8.37;;
12312;SDS011;6220;53.580;9.758;2023-04-06T06:18:47;14.93;;;7.60;;
12312;SDS011;6220;53.580;9.758;2023-04-06T06:21:12;11.57;;;7.37;;
12312;SDS011;6220;53.580;9.758;2023-04-06T06:23:38;8.50;;;5.87;;
12312;SDS011;6220;53.580;9.758;2023-04-06T06:26:04;9.20;;;6.13;;
12312;SDS011;6220;53.580;9.758;2023-04-06T06:28:29;7.60;;;5.73;;
12312;SDS011;6220;53.580;9.758;2023-04-06T06:30:55;8.27;;;5.77;;
12312;SDS011;6220;53.580;9.758;2023-04-06T06:33:20;9.17;;;6.03;;
12312;SDS011;6220;53.580;9.758;2023-04-06T06:35:46;8.03;;;5.77;;
12312;SDS011;6220;53.580;9.758;2023-04-06T06:38:11;6.97;;;5.30;;
12312;SDS011;6220;53.580;9.758;2023-04-06T06:40:39;8.57;;;5.60;;
12312;SDS011;6220;53.580;9.758;2023-04-06T06:43:05;9.83;;;5.73;;
12312;SDS011;6220;53.580;9.758;2023-04-06T06:45:31;8.23;;;5.40;;
12312;SDS011;6220;53.580;9.758;2023-04-06T06:47:56;10.60;;;5.83;;
12312;SDS011;6220;53.580;9.758;2023-04-06T06:50:21;10.90;;;5.57;;
12312;SDS011;6220;53.580;9.758;2023-04-06T06:52:47;7.23;;;6.03;;
12312;SDS011;6220;53.580;9.758;2023-04-06T06:55:12;12.30;;;6.03;;
12312;SDS011;6220;53.580;9.758;2023-04-06T06:57:38;7.60;;;5.50;;
12312;SDS011;6220;53.580;9.758;2023-04-06T07:00:04;9.80;;;5.27;;
12312;SDS011;6220;53.580;9.758;2023-04-06T07:02:31;9.47;;;5.77;;
12312;SDS011;6220;53.580;9.758;2023-04-06T07:04:56;11.53;;;4.97;;
12312;SDS011;6220;53.580;9.758;2023-04-06T07:07:21;8.93;;;5.07;;
12312;SDS011;6220;53.580;9.758;2023-04-06T07:09:47;10.37;;;5.77;;
12312;SDS011;6220;53.580;9.758;2023-04-06T07:12:12;7.67;;;5.07;;
12312;SDS011;6220;53.580;9.758;2023-04-06T07:14:38;10.30;;;5.80;;
12312;SDS011;6220;53.580;9.758;2023-04-06T07:17:03;12.37;;;5.57;;
12312;SDS011;6220;53.580;9.758;2023-04-06T07:19:28;7.10;;;5.20;;
12312;SDS011;6220;53.580;9.758;2023-04-06T07:21:54;11.93;;;4.83;;
12312;SDS011;6220;53.580;9.758;2023-04-06T07:24:19;10.40;;;5.63;;
12312;SDS011;6220;53.580;9.758;2023-04-06T07:26:45;6.10;;;4.70;;
12312;SDS011;6220;53.580;9.758;2023-04-06T07:29:10;11.77;;;5.03;;
12312;SDS011;6220;53.580;9.758;2023-04-06T07:31:36;7.40;;;4.83;;
12312;SDS011;6220;53.580;9.758;2023-04-06T07:34:01;8.20;;;5.23;;
12312;SDS011;6220;53.580;9.758;2023-04-06T07:36:27;7.37;;;5.03;;
12312;SDS011;6220;53.580;9.758;2023-04-06T07:38:52;7.70;;;5.27;;
12312;SDS011;6220;53.580;9.758;2023-04-06T07:41:18;8.33;;;4.80;;
12312;SDS011;6220;53.580;9.758;2023-04-06T07:43:43;11.90;;;5.43;;
12312;SDS011;6220;53.580;9.758;2023-04-06T07:46:08;8.00;;;4.87;;
12312;SDS011;6220;53.580;9.758;2023-04-06T07:48:34;7.57;;;4.80;;
12312;SDS011;6220;53.580;9.758;2023-04-06T07:51:00;6.67;;;4.40;;
12312;SDS011;6220;53.580;9.758;2023-04-06T07:53:27;9.67;;;5.03;;
12312;SDS011;6220;53.580;9.758;2023-04-06T07:55:53;7.77;;;5.40;;
12312;SDS011;6220;53.580;9.758;2023-04-06T07:58:18;6.77;;;5.03;;
12312;SDS011;6220;53.580;9.758;2023-04-06T08:00:43;12.87;;;5.67;;
12312;SDS011;6220;53.580;9.758;2023-04-06T08:03:09;7.97;;;4.97;;
12312;SDS011;6220;53.580;9.758;2023-04-06T08:05:34;9.67;;;5.27;;
12312;SDS011;6220;53.580;9.758;2023-04-06T08:08:00;6.80;;;5.40;;
12312;SDS011;6220;53.580;9.758;2023-04-06T08:10:25;8.57;;;5.97;;
12312;SDS011;6220;53.580;9.758;2023-04-06T08:12:51;7.37;;;5.07;;
12312;SDS011;6220;53.580;9.758;2023-04-06T08:15:17;8.47;;;5.43;;
12312;SDS011;6220;53.580;9.758;2023-04-06T08:17:43;6.57;;;5.17;;
12312;SDS011;6220;53.580;9.758;2023-04-06T08:20:08;6.33;;;5.00;;
12312;SDS011;6220;53.580;9.758;2023-04-06T08:22:35;7.10;;;5.43;;
12312;SDS011;6220;53.580;9.758;2023-04-06T08:25:00;6.23;;;5.23;;
12312;SDS011;6220;53.580;9.758;2023-04-06T08:27:26;7.83;;;5.50;;
12312;SDS011;6220;53.580;9.758;2023-04-06T08:29:51;9.43;;;5.00;;
12312;SDS011;6220;53.580;9.758;2023-04-06T08:32:17;7.37;;;5.23;;
12312;SDS011;6220;53.580;9.758;2023-04-06T08:34:42;7.37;;;5.10;;
12312;SDS011;6220;53.580;9.758;2023-04-06T08:37:08;7.00;;;5.27;;
12312;SDS011;6220;53.580;9.758;2023-04-06T08:39:33;6.73;;;5.40;;
12312;SDS011;6220;53.580;9.758;2023-04-06T08:41:58;7.17;;;4.87;;
12312;SDS011;6220;53.580;9.758;2023-04-06T08:44:27;9.23;;;4.93;;
12312;SDS011;6220;53.580;9.758;2023-04-06T08:46:54;8.37;;;5.70;;
12312;SDS011;6220;53.580;9.758;2023-04-06T08:49:20;6.70;;;5.43;;
12312;SDS011;6220;53.580;9.758;2023-04-06T08:51:45;6.47;;;5.00;;
12312;SDS011;6220;53.580;9.758;2023-04-06T08:54:12;10.10;;;5.70;;
12312;SDS011;6220;53.580;9.758;2023-04-06T08:56:38;7.47;;;5.50;;
12312;SDS011;6220;53.580;9.758;2023-04-06T08:59:03;8.33;;;5.73;;
12312;SDS011;6220;53.580;9.758;2023-04-06T09:01:30;6.87;;;5.37;;
12312;SDS011;6220;53.580;9.758;2023-04-06T09:03:59;9.17;;;5.27;;
12312;SDS011;6220;53.580;9.758;2023-04-06T09:06:25;10.03;;;5.73;;
12312;SDS011;6220;53.580;9.758;2023-04-06T09:08:52;8.53;;;5.33;;
12312;SDS011;6220;53.580;9.758;2023-04-06T09:11:17;7.90;;;5.23;;
12312;SDS011;6220;53.580;9.758;2023-04-06T09:13:53;6.40;;;5.07;;
12312;SDS011;6220;53.580;9.758;2023-04-06T09:16:19;6.37;;;4.87;;
12312;SDS011;6220;53.580;9.758;2023-04-06T09:18:45;6.17;;;4.80;;
12312;SDS011;6220;53.580;9.758;2023-04-06T09:21:11;9.57;;;5.60;;
12312;SDS011;6220;53.580;9.758;2023-04-06T09:23:37;7.77;;;5.60;;
12312;SDS011;6220;53.580;9.758;2023-04-06T09:26:15;7.87;;;5.50;;
12312;SDS011;6220;53.580;9.758;2023-04-06T09:28:46;7.73;;;5.53;;
12312;SDS011;6220;53.580;9.758;2023-04-06T09:31:17;6.03;;;4.93;;
12312;SDS011;6220;53.580;9.758;2023-04-06T09:33:47;5.83;;;5.00;;
12312;SDS011;6220;53.580;9.758;2023-04-06T09:36:13;7.17;;;5.30;;
12312;SDS011;6220;53.580;9.758;2023-04-06T09:38:56;7.17;;;5.20;;
12312;SDS011;6220;53.580;9.758;2023-04-06T09:41:29;12.67;;;5.57;;
12312;SDS011;6220;53.580;9.758;2023-04-06T09:46:31;6.97;;;4.90;;
12312;SDS011;6220;53.580;9.758;2023-04-06T09:48:59;7.03;;;4.90;;
12312;SDS011;6220;53.580;9.758;2023-04-06T09:51:28;8.40;;;4.97;;
12312;SDS011;6220;53.580;9.758;2023-04-06T09:53:55;4.90;;;4.27;;
12312;SDS011;6220;53.580;9.758;2023-04-06T09:56:26;6.97;;;4.67;;
12312;SDS011;6220;53.580;9.758;2023-04-06T09:58:54;7.03;;;3.90;;
12312;SDS011;6220;53.580;9.758;2023-04-06T10:01:22;4.83;;;4.27;;
12312;SDS011;6220;53.580;9.758;2023-04-06T10:03:56;5.77;;;4.93;;
12312;SDS011;6220;53.580;9.758;2023-04-06T10:06:32;5.50;;;4.80;;
12312;SDS011;6220;53.580;9.758;2023-04-06T10:09:00;5.80;;;4.40;;
12312;SDS011;6220;53.580;9.758;2023-04-06T10:11:27;7.00;;;4.53;;
12312;SDS011;6220;53.580;9.758;2023-04-06T10:13:53;6.33;;;4.20;;
12312;SDS011;6220;53.580;9.758;2023-04-06T10:16:19;5.77;;;4.30;;
12312;SDS011;6220;53.580;9.758;2023-04-06T10:18:50;5.93;;;3.93;;
12312;SDS011;6220;53.580;9.758;2023-04-06T10:21:23;7.27;;;4.60;;
12312;SDS011;6220;53.580;9.758;2023-04-06T10:23:51;6.83;;;4.40;;
12312;SDS011;6220;53.580;9.758;2023-04-06T10:26:20;5.13;;;4.10;;
12312;SDS011;6220;53.580;9.758;2023-04-06T10:28:46;5.50;;;4.20;;
12312;SDS011;6220;53.580;9.758;2023-04-06T10:31:12;5.43;;;4.80;;
12312;SDS011;6220;53.580;9.758;2023-04-06T10:33:38;7.03;;;4.83;;
12312;SDS011;6220;53.580;9.758;2023-04-06T10:38:39;7.33;;;4.10;;
12312;SDS011;6220;53.580;9.758;2023-04-06T10:41:09;7.60;;;4.87;;
12312;SDS011;6220;53.580;9.758;2023-04-06T10:43:36;6.63;;;4.43;;
12312;SDS011;6220;53.580;9.758;2023-04-06T10:46:03;6.07;;;4.43;;
12312;SDS011;6220;53.580;9.758;2023-04-06T10:48:36;5.07;;;4.57;;
12312;SDS011;6220;53.580;9.758;2023-04-06T10:51:14;6.03;;;4.53;;
12312;SDS011;6220;53.580;9.758;2023-04-06T10:53:47;7.83;;;4.43;;
12312;SDS011;6220;53.580;9.758;2023-04-06T10:56:17;6.87;;;4.57;;
12312;SDS011;6220;53.580;9.758;2023-04-06T10:58:46;4.97;;;4.47;;
12312;SDS011;6220;53.580;9.758;2023-04-06T11:01:13;5.47;;;4.83;;
12312;SDS011;6220;53.580;9.758;2023-04-06T11:03:46;6.63;;;4.73;;
12312;SDS011;6220;53.580;9.758;2023-04-06T11:06:20;6.70;;;5.10;;
12312;SDS011;6220;53.580;9.758;2023-04-06T11:08:47;6.17;;;5.33;;
12312;SDS011;6220;53.580;9.758;2023-04-06T11:11:13;7.70;;;5.37;;
12312;SDS011;6220;53.580;9.758;2023-04-06T11:13:48;7.20;;;5.33;;
12312;SDS011;6220;53.580;9.758;2023-04-06T11:18:48;5.97;;;5.37;;
12312;SDS011;6220;53.580;9.758;2023-04-06T11:24:10;6.40;;;5.73;;
12312;SDS011;6220;53.580;9.758;2023-04-06T11:26:40;8.27;;;5.67;;
12312;SDS011;6220;53.580;9.758;2023-04-06T11:29:06;6.23;;;5.23;;
12312;SDS011;6220;53.580;9.758;2023-04-06T11:31:36;6.67;;;5.97;;
12312;SDS011;6220;53.580;9.758;2023-04-06T11:34:08;8.97;;;5.90;;
12312;SDS011;6220;53.580;9.758;2023-04-06T11:36:34;8.37;;;5.93;;
12312;SDS011;6220;53.580;9.758;2023-04-06T11:39:02;8.13;;;6.43;;
12312;SDS011;6220;53.580;9.758;2023-04-06T11:41:28;7.13;;;5.60;;
12312;SDS011;6220;53.580;9.758;2023-04-06T11:43:55;9.13;;;6.00;;
12312;SDS011;6220;53.580;9.758;2023-04-06T11:46:20;7.40;;;6.27;;
12312;SDS011;6220;53.580;9.758;2023-04-06T11:48:46;6.77;;;5.87;;
12312;SDS011;6220;53.580;9.758;2023-04-06T11:51:11;7.63;;;5.77;;
12312;SDS011;6220;53.580;9.758;2023-04-06T11:53:43;7.37;;;6.20;;
12312;SDS011;6220;53.580;9.758;2023-04-06T11:56:10;10.10;;;8.23;;
12312;SDS011;6220;53.580;9.758;2023-04-06T11:58:35;10.30;;;6.23;;
12312;SDS011;6220;53.580;9.758;2023-04-06T12:01:04;8.53;;;6.50;;
12312;SDS011;6220;53.580;9.758;2023-04-06T12:03:31;7.90;;;7.10;;
12312;SDS011;6220;53.580;9.758;2023-04-06T12:05:56;10.53;;;8.30;;
12312;SDS011;6220;53.580;9.758;2023-04-06T12:08:21;10.67;;;7.43;;
12312;SDS011;6220;53.580;9.758;2023-04-06T12:10:50;7.30;;;5.93;;
12312;SDS011;6220;53.580;9.758;2023-04-06T12:13:15;12.60;;;9.50;;
12312;SDS011;6220;53.580;9.758;2023-04-06T12:15:41;13.13;;;9.57;;
12312;SDS011;6220;53.580;9.758;2023-04-06T12:18:06;11.17;;;9.83;;
12312;SDS011;6220;53.580;9.758;2023-04-06T12:20:32;12.07;;;9.37;;
12312;SDS011;6220;53.580;9.758;2023-04-06T12:22:57;12.53;;;9.53;;
12312;SDS011;6220;53.580;9.758;2023-04-06T12:25:25;10.63;;;9.27;;
12312;SDS011;6220;53.580;9.758;2023-04-06T12:27:51;11.47;;;9.10;;
12312;SDS011;6220;53.580;9.758;2023-04-06T12:30:16;13.57;;;8.87;;
12312;SDS011;6220;53.580;9.758;2023-04-06T12:32:42;11.33;;;8.60;;
12312;SDS011;6220;53.580;9.758;2023-04-06T12:35:08;9.73;;;8.73;;
12312;SDS011;6220;53.580;9.758;2023-04-06T12:37:34;11.20;;;8.90;;
12312;SDS011;6220;53.580;9.758;2023-04-06T12:39:59;13.77;;;9.47;;
12312;SDS011;6220;53.580;9.758;2023-04-06T12:42:26;10.17;;;8.90;;
12312;SDS011;6220;53.580;9.758;2023-04-06T12:44:51;10.17;;;8.50;;
12312;SDS011;6220;53.580;9.758;2023-04-06T12:47:17;11.40;;;8.57;;
12312;SDS011;6220;53.580;9.758;2023-04-06T12:49:43;9.57;;;8.57;;
12312;SDS011;6220;53.580;9.758;2023-04-06T12:52:08;10.63;;;8.60;;
12312;SDS011;6220;53.580;9.758;2023-04-06T12:54:34;10.50;;;8.33;;
12312;SDS011;6220;53.580;9.758;2023-04-06T12:56:59;9.47;;;8.50;;
12312;SDS011;6220;53.580;9.758;2023-04-06T12:59:25;10.70;;;8.63;;
12312;SDS011;6220;53.580;9.758;2023-04-06T13:01:51;11.13;;;9.50;;
12312;SDS011;6220;53.580;9.758;2023-04-06T13:04:17;11.63;;;9.13;;
12312;SDS011;6220;53.580;9.758;2023-04-06T13:06:43;10.20;;;8.97;;
12312;SDS011;6220;53.580;9.758;2023-04-06T13:09:08;10.60;;;8.50;;
12312;SDS011;6220;53.580;9.758;2023-04-06T13:11:33;9.73;;;8.73;;
12312;SDS011;6220;53.580;9.758;2023-04-06T13:13:59;10.37;;;9.20;;
12312;SDS011;6220;53.580;9.758;2023-04-06T13:16:25;12.27;;;8.60;;
12312;SDS011;6220;53.580;9.758;2023-04-06T13:18:50;9.63;;;8.43;;
12312;SDS011;6220;53.580;9.758;2023-04-06T13:21:16;10.20;;;8.73;;
12312;SDS011;6220;53.580;9.758;2023-04-06T13:23:41;10.87;;;9.40;;
12312;SDS011;6220;53.580;9.758;2023-04-06T13:26:07;8.90;;;7.90;;
12312;SDS011;6220;53.580;9.758;2023-04-06T13:28:34;9.90;;;8.20;;
12312;SDS011;6220;53.580;9.758;2023-04-06T13:31:02;12.33;;;8.63;;
12312;SDS011;6220;53.580;9.758;2023-04-06T13:33:28;9.80;;;7.73;;
12312;SDS011;6220;53.580;9.758;2023-04-06T13:35:54;9.33;;;8.27;;
12312;SDS011;6220;53.580;9.758;2023-04-06T13:38:29;10.93;;;8.40;;
12312;SDS011;6220;53.580;9.758;2023-04-06T13:40:54;9.93;;;8.87;;
12312;SDS011;6220;53.580;9.758;2023-04-06T13:43:20;10.03;;;8.07;;
12312;SDS011;6220;53.580;9.758;2023-04-06T13:45:50;11.07;;;8.27;;
12312;SDS011;6220;53.580;9.758;2023-04-06T13:48:16;8.70;;;7.90;;
12312;SDS011;6220;53.580;9.758;2023-04-06T13:50:42;10.43;;;8.37;;
12312;SDS011;6220;53.580;9.758;2023-04-06T13:53:07;10.50;;;8.00;;
12312;SDS011;6220;53.580;9.758;2023-04-06T13:55:33;9.40;;;8.10;;
12312;SDS011;6220;53.580;9.758;2023-04-06T13:57:58;11.57;;;7.73;;
12312;SDS011;6220;53.580;9.758;2023-04-06T14:00:23;9.57;;;6.93;;
12312;SDS011;6220;53.580;9.758;2023-04-06T14:02:49;8.47;;;7.57;;
12312;SDS011;6220;53.580;9.758;2023-04-06T14:05:15;10.57;;;7.87;;
12312;SDS011;6220;53.580;9.758;2023-04-06T14:07:40;8.17;;;7.33;;
12312;SDS011;6220;53.580;9.758;2023-04-06T14:10:08;8.77;;;7.53;;
12312;SDS011;6220;53.580;9.758;2023-04-06T14:12:39;8.00;;;7.03;;
12312;SDS011;6220;53.580;9.758;2023-04-06T14:15:05;7.73;;;6.47;;
12312;SDS011;6220;53.580;9.758;2023-04-06T14:17:32;7.47;;;5.67;;
12312;SDS011;6220;53.580;9.758;2023-04-06T14:19:57;7.87;;;6.17;;
12312;SDS011;6220;53.580;9.758;2023-04-06T14:22:22;8.23;;;6.60;;
12312;SDS011;6220;53.580;9.758;2023-04-06T14:24:48;7.07;;;5.33;;
12312;SDS011;6220;53.580;9.758;2023-04-06T14:27:13;9.63;;;5.57;;
12312;SDS011;6220;53.580;9.758;2023-04-06T14:29:38;8.37;;;6.20;;
12312;SDS011;6220;53.580;9.758;2023-04-06T14:32:04;6.73;;;5.90;;
12312;SDS011;6220;53.580;9.758;2023-04-06T14:34:29;9.77;;;6.53;;
12312;SDS011;6220;53.580;9.758;2023-04-06T14:36:55;7.27;;;6.30;;
12312;SDS011;6220;53.580;9.758;2023-04-06T14:39:20;10.30;;;6.30;;
12312;SDS011;6220;53.580;9.758;2023-04-06T14:41:46;9.87;;;5.83;;
12312;SDS011;6220;53.580;9.758;2023-04-06T14:44:12;8.43;;;6.50;;
12312;SDS011;6220;53.580;9.758;2023-04-06T14:46:39;8.67;;;6.60;;
12312;SDS011;6220;53.580;9.758;2023-04-06T14:49:04;9.87;;;6.83;;
12312;SDS011;6220;53.580;9.758;2023-04-06T14:51:30;8.07;;;6.50;;
12312;SDS011;6220;53.580;9.758;2023-04-06T14:53:55;6.30;;;5.70;;
12312;SDS011;6220;53.580;9.758;2023-04-06T14:56:21;6.73;;;5.67;;
12312;SDS011;6220;53.580;9.758;2023-04-06T14:58:48;5.67;;;5.07;;
12312;SDS011;6220;53.580;9.758;2023-04-06T15:01:15;6.60;;;5.17;;